Time;durP1;ratioP1;P1;durP2;ratioP2;P2;SDS_P1;SDS_P2;PMS_P1;PMS_P2;Temp;Humidity;BMP_temperature;BMP_pressure;BME280_temperature;BME280_humidity;BME280_pressure;Samples;Min_cycle;Max_cycle;Signal;HPM_P1;HPM_P2
2021/12/03 00:01:21;;;;;;;;;;;-0.40;99.90;;;;;;4955768;28;20097;-72
2021/12/03 00:03:49;;;;;;;;;;;-0.40;99.90;;;;;;4984780;28;21154;-72
2021/12/03 00:06:16;;;;;;;;;;;-0.40;99.90;;;;;;4963724;28;20321;-72
2021/12/03 00:08:43;;;;;;;;;;;-0.20;99.90;;;;;;4962190;28;20201;-72
2021/12/03 00:11:13;;;;;;;;;;;-0.10;99.90;;;;;;4963173;28;20162;-72
2021/12/03 00:13:41;;;;;;;;;;;0.10;99.90;;;;;;4959854;28;20060;-72
2021/12/03 00:16:08;;;;;;;;;;;0.10;99.90;;;;;;4968084;28;21251;-72
2021/12/03 00:18:35;;;;;;;;;;;0.20;99.90;;;;;;4959031;28;20052;-72
2021/12/03 00:21:07;;;;;;;;;;;0.20;99.90;;;;;;4964538;28;20100;-72
2021/12/03 00:23:34;;;;;;;;;;;0.30;99.90;;;;;;4968682;28;21049;-72
2021/12/03 00:26:02;;;;;;;;;;;0.30;99.90;;;;;;4964759;28;20068;-72
2021/12/03 00:28:31;;;;;;;;;;;0.30;99.90;;;;;;4969294;28;20077;-72
2021/12/03 00:30:59;;;;;;;;;;;0.30;99.90;;;;;;4983837;28;20102;-71
2021/12/03 00:33:27;;;;;;;;;;;0.30;99.90;;;;;;4962406;28;20061;-71
2021/12/03 00:35:54;;;;;;;;;;;0.30;99.90;;;;;;4962976;28;20084;-71
2021/12/03 00:38:21;;;;;;;;;;;0.30;99.90;;;;;;4965400;28;20152;-71
2021/12/03 00:40:49;;;;;;;;;;;0.20;99.90;;;;;;4971053;28;20068;-71
2021/12/03 00:43:16;;;;;;;;;;;0.20;99.90;;;;;;4959941;28;21160;-71
2021/12/03 00:45:45;;;;;;;;;;;0.20;99.90;;;;;;4965712;28;20060;-71
2021/12/03 00:48:12;;;;;;;;;;;0.30;99.90;;;;;;4966688;28;20061;-70
2021/12/03 00:50:40;;;;;;;;;;;0.40;99.90;;;;;;4968206;28;21106;-71
2021/12/03 00:53:07;;;;;;;;;;;0.40;99.90;;;;;;4960220;28;21248;-71
2021/12/03 00:55:34;;;;;;;;;;;0.40;99.90;;;;;;4968750;28;20187;-71
2021/12/03 00:58:02;;;;;;;;;;;0.40;99.90;;;;;;4975738;28;20107;-70
2021/12/03 01:00:30;;;;;;;;;;;0.40;99.90;;;;;;4963086;28;21017;-72
2021/12/03 01:03:00;;;;;;;;;;;0.50;99.90;;;;;;4966419;28;20076;-71
2021/12/03 01:05:27;;;;;;;;;;;0.50;99.90;;;;;;4989629;28;21041;-71
2021/12/03 01:07:55;;;;;;;;;;;0.50;99.90;;;;;;4964579;28;20084;-71
2021/12/03 01:10:23;;;;;;;;;;;0.70;99.90;;;;;;4963377;28;20075;-71
2021/12/03 01:12:50;;;;;;;;;;;0.70;99.90;;;;;;4963467;28;20060;-72
2021/12/03 01:15:22;;;;;;;;;;;0.70;99.90;;;;;;4978326;28;20068;-71
2021/12/03 01:17:50;;;;;;;;;;;0.60;99.90;;;;;;4963660;28;20069;-71
2021/12/03 01:20:19;;;;;;;;;;;0.70;99.90;;;;;;4958609;28;21033;-71
2021/12/03 01:22:47;;;;;;;;;;;0.80;99.90;;;;;;4979126;28;21174;-72
2021/12/03 01:25:15;;;;;;;;;;;0.80;99.90;;;;;;4973434;28;21138;-71
2021/12/03 01:27:43;;;;;;;;;;;0.90;99.90;;;;;;4968955;28;20092;-70
2021/12/03 01:30:11;;;;;;;;;;;0.90;99.90;;;;;;4968331;28;21047;-71
2021/12/03 01:32:39;;;;;;;;;;;1.00;99.90;;;;;;4977111;28;20303;-71
2021/12/03 01:35:07;;;;;;;;;;;1.10;99.90;;;;;;4968696;28;20086;-71
2021/12/03 01:37:35;;;;;;;;;;;1.10;99.90;;;;;;4973387;28;20117;-71
2021/12/03 01:40:03;;;;;;;;;;;1.20;99.90;;;;;;4958885;28;20075;-71
2021/12/03 01:42:31;;;;;;;;;;;1.20;99.90;;;;;;4968747;28;21052;-71
2021/12/03 01:44:58;;;;;;;;;;;1.30;99.90;;;;;;4968839;28;20158;-71
2021/12/03 01:47:25;;;;;;;;;;;1.30;99.90;;;;;;4970101;28;20077;-71
2021/12/03 01:49:52;;;;;;;;;;;1.30;99.90;;;;;;4973770;28;20091;-72
2021/12/03 01:52:19;;;;;;;;;;;1.40;99.90;;;;;;4965903;28;20089;-71
2021/12/03 01:54:48;;;;;;;;;;;1.40;99.90;;;;;;4974571;28;20077;-72
2021/12/03 01:57:16;;;;;;;;;;;1.50;99.90;;;;;;4974892;28;20075;-73
2021/12/03 01:59:43;;;;;;;;;;;1.50;99.90;;;;;;4967537;28;20261;-73
2021/12/03 02:02:10;;;;;;;;;;;1.50;99.90;;;;;;4968561;28;20200;-72
2021/12/03 02:04:38;;;;;;;;;;;1.50;99.90;;;;;;4973373;28;20098;-73
2021/12/03 02:07:07;;;;;;;;;;;1.50;99.90;;;;;;4974043;28;20061;-72
2021/12/03 02:09:34;;;;;;;;;;;1.50;99.90;;;;;;4973922;28;20917;-73
2021/12/03 02:12:03;;;;;;;;;;;1.60;99.90;;;;;;4979369;28;20074;-73
2021/12/03 02:14:31;;;;;;;;;;;1.60;99.90;;;;;;4966569;28;21217;-73
2021/12/03 02:16:58;;;;;;;;;;;1.60;99.90;;;;;;4974129;28;20068;-73
2021/12/03 02:19:26;;;;;;;;;;;1.60;99.90;;;;;;4971678;28;20069;-72
2021/12/03 02:21:55;;;;;;;;;;;1.70;99.90;;;;;;4974767;28;21222;-73
2021/12/03 02:24:22;;;;;;;;;;;1.70;99.90;;;;;;4974453;28;20177;-73
2021/12/03 02:26:49;;;;;;;;;;;1.70;99.90;;;;;;5004529;28;21134;-73
2021/12/03 02:29:17;;;;;;;;;;;1.80;99.90;;;;;;4973808;28;20247;-73
2021/12/03 02:31:44;;;;;;;;;;;1.80;99.90;;;;;;4974829;28;20171;-73
2021/12/03 02:34:11;;;;;;;;;;;1.90;99.90;;;;;;4971503;28;20069;-73
2021/12/03 02:36:38;;;;;;;;;;;1.90;99.90;;;;;;4974156;28;21131;-72
2021/12/03 02:39:07;;;;;;;;;;;1.90;99.90;;;;;;4971206;28;21699;-72
2021/12/03 02:41:34;;;;;;;;;;;1.90;99.90;;;;;;4974317;28;20099;-73
2021/12/03 02:44:01;;;;;;;;;;;1.90;99.90;;;;;;5000990;28;20315;-72
2021/12/03 02:46:28;;;;;;;;;;;1.90;99.90;;;;;;4996671;28;20067;-71
2021/12/03 02:48:55;;;;;;;;;;;1.80;99.90;;;;;;4970828;28;20061;-71
2021/12/03 02:51:23;;;;;;;;;;;1.80;99.90;;;;;;4964648;28;20151;-71
2021/12/03 02:53:50;;;;;;;;;;;1.90;99.90;;;;;;4975197;28;20077;-71
2021/12/03 02:56:18;;;;;;;;;;;1.90;99.90;;;;;;4963821;28;20069;-72
2021/12/03 02:58:46;;;;;;;;;;;1.90;99.90;;;;;;4964383;28;20155;-71
2021/12/03 03:01:13;;;;;;;;;;;1.90;99.90;;;;;;4964663;28;20095;-71
2021/12/03 03:03:40;;;;;;;;;;;1.90;99.90;;;;;;4968328;28;21200;-71
2021/12/03 03:06:08;;;;;;;;;;;1.90;99.90;;;;;;4967608;28;21126;-71
2021/12/03 03:08:36;;;;;;;;;;;1.90;99.90;;;;;;4968070;28;20248;-71
2021/12/03 03:11:06;;;;;;;;;;;1.90;99.90;;;;;;4960531;28;20059;-71
2021/12/03 03:13:35;;;;;;;;;;;1.90;99.90;;;;;;4985620;28;20084;-71
2021/12/03 03:16:02;;;;;;;;;;;2.00;99.90;;;;;;4980197;28;20069;-71
2021/12/03 03:18:30;;;;;;;;;;;2.00;99.90;;;;;;4970228;28;20080;-71
2021/12/03 03:20:59;;;;;;;;;;;2.10;99.90;;;;;;4962042;28;20072;-71
2021/12/03 03:23:26;;;;;;;;;;;2.10;99.90;;;;;;4964128;28;21200;-71
2021/12/03 03:25:54;;;;;;;;;;;2.20;99.90;;;;;;4960442;28;20070;-71
2021/12/03 03:28:22;;;;;;;;;;;2.20;99.90;;;;;;4968766;28;20069;-71
2021/12/03 03:30:52;;;;;;;;;;;2.20;99.90;;;;;;4968877;28;20158;-72
2021/12/03 03:33:19;;;;;;;;;;;2.30;99.90;;;;;;4967520;28;20181;-71
2021/12/03 03:35:46;;;;;;;;;;;2.30;99.90;;;;;;4965182;28;21195;-72
2021/12/03 03:38:15;;;;;;;;;;;2.30;99.90;;;;;;4967666;28;21065;-71
2021/12/03 03:40:42;;;;;;;;;;;2.40;99.90;;;;;;4966344;28;20167;-73
2021/12/03 03:43:10;;;;;;;;;;;2.40;99.90;;;;;;4967672;28;20088;-71
2021/12/03 03:45:37;;;;;;;;;;;2.40;99.90;;;;;;4957722;28;21121;-71
2021/12/03 03:48:06;;;;;;;;;;;2.40;99.90;;;;;;4972262;28;20076;-70
2021/12/03 03:50:34;;;;;;;;;;;2.40;99.90;;;;;;4965729;28;21174;-70
2021/12/03 03:53:01;;;;;;;;;;;2.40;99.90;;;;;;4967546;28;20075;-71
2021/12/03 03:55:28;;;;;;;;;;;2.40;99.90;;;;;;4966814;28;20069;-71
2021/12/03 03:57:57;;;;;;;;;;;2.40;99.90;;;;;;4967236;28;21099;-70
2021/12/03 04:00:25;;;;;;;;;;;2.40;99.90;;;;;;4966217;28;20095;-70
2021/12/03 04:02:53;;;;;;;;;;;2.40;99.90;;;;;;4966460;28;20099;-70
2021/12/03 04:05:22;;;;;;;;;;;2.40;99.90;;;;;;4968418;28;21101;-71
2021/12/03 04:07:49;;;;;;;;;;;2.40;99.90;;;;;;4965855;28;20297;-70
2021/12/03 04:10:17;;;;;;;;;;;2.40;99.90;;;;;;4966368;28;20083;-70
2021/12/03 04:12:44;;;;;;;;;;;2.40;99.90;;;;;;4963798;28;20085;-70
2021/12/03 04:15:11;;;;;;;;;;;2.40;99.90;;;;;;4966694;28;20171;-71
2021/12/03 04:17:39;;;;;;;;;;;2.40;99.90;;;;;;4979624;28;20065;-71
2021/12/03 04:20:07;;;;;;;;;;;2.40;99.90;;;;;;4967238;28;20076;-72
2021/12/03 04:22:36;;;;;;;;;;;2.40;99.90;;;;;;4968201;28;20068;-72
2021/12/03 04:25:05;;;;;;;;;;;2.40;99.90;;;;;;4966518;28;20262;-72
2021/12/03 04:27:32;;;;;;;;;;;2.40;99.90;;;;;;4965029;28;21261;-73
2021/12/03 04:29:59;;;;;;;;;;;2.40;99.90;;;;;;4961937;28;21038;-73
2021/12/03 04:32:26;;;;;;;;;;;2.40;99.90;;;;;;4969104;28;20104;-73
2021/12/03 04:34:53;;;;;;;;;;;2.40;99.90;;;;;;4967048;28;21084;-73
2021/12/03 04:37:20;;;;;;;;;;;2.50;99.90;;;;;;4969941;28;21158;-72
2021/12/03 04:39:51;;;;;;;;;;;2.50;99.90;;;;;;4963449;28;20101;-72
2021/12/03 04:42:18;;;;;;;;;;;2.50;99.90;;;;;;4965819;28;20092;-73
2021/12/03 04:44:45;;;;;;;;;;;2.50;99.90;;;;;;4966469;28;20070;-73
2021/12/03 04:47:13;;;;;;;;;;;2.50;99.90;;;;;;4969048;28;20068;-73
2021/12/03 04:49:40;;;;;;;;;;;2.50;99.90;;;;;;4983121;28;20059;-73
2021/12/03 04:52:07;;;;;;;;;;;2.50;99.90;;;;;;4967892;28;20076;-73
2021/12/03 04:54:35;;;;;;;;;;;2.40;99.90;;;;;;4973255;28;20100;-73
2021/12/03 04:57:03;;;;;;;;;;;2.40;99.90;;;;;;4998759;28;20060;-72
2021/12/03 04:59:30;;;;;;;;;;;2.40;99.90;;;;;;4968642;28;21189;-73
2021/12/03 05:01:58;;;;;;;;;;;2.40;99.90;;;;;;4962332;28;20075;-73
2021/12/03 05:04:25;;;;;;;;;;;2.40;99.90;;;;;;4974138;28;20059;-73
2021/12/03 05:07:04;;;;;;;;;;;2.50;99.90;;;;;;4989164;28;20076;-73
2021/12/03 05:09:32;;;;;;;;;;;2.50;99.90;;;;;;4964054;28;20060;-72
2021/12/03 05:11:59;;;;;;;;;;;2.50;99.90;;;;;;4966687;28;20163;-72
2021/12/03 05:14:28;;;;;;;;;;;2.60;99.90;;;;;;4968172;28;20190;-73
2021/12/03 05:16:55;;;;;;;;;;;2.60;99.90;;;;;;4968420;28;20100;-73
2021/12/03 05:19:22;;;;;;;;;;;2.60;99.90;;;;;;4964017;28;20069;-72
2021/12/03 05:21:49;;;;;;;;;;;2.60;99.90;;;;;;4956667;28;20069;-73
2021/12/03 05:24:17;;;;;;;;;;;2.60;99.90;;;;;;4976067;28;20117;-73
2021/12/03 05:26:45;;;;;;;;;;;2.60;99.90;;;;;;4960295;28;20061;-73
2021/12/03 05:29:12;;;;;;;;;;;2.70;99.90;;;;;;4957461;28;20091;-73
2021/12/03 05:31:41;;;;;;;;;;;2.70;99.90;;;;;;4970422;28;20100;-73
2021/12/03 05:34:12;;;;;;;;;;;2.70;99.90;;;;;;4965796;28;21081;-73
2021/12/03 05:36:39;;;;;;;;;;;2.70;99.90;;;;;;4970788;28;21179;-73
2021/12/03 05:39:07;;;;;;;;;;;2.70;99.90;;;;;;4988394;28;20074;-73
2021/12/03 05:41:35;;;;;;;;;;;2.70;99.90;;;;;;4967324;28;20077;-72
2021/12/03 05:44:02;;;;;;;;;;;2.70;99.90;;;;;;4967683;28;20128;-72
2021/12/03 05:46:30;;;;;;;;;;;2.70;99.90;;;;;;4978050;28;20078;-73
2021/12/03 05:48:58;;;;;;;;;;;2.70;99.90;;;;;;4968108;28;20087;-73
2021/12/03 05:51:28;;;;;;;;;;;2.70;99.90;;;;;;4967606;28;20179;-72
2021/12/03 05:53:55;;;;;;;;;;;2.80;99.90;;;;;;4996192;28;20066;-72
2021/12/03 05:56:22;;;;;;;;;;;2.80;99.90;;;;;;4969315;28;21050;-73
2021/12/03 05:58:50;;;;;;;;;;;2.80;99.90;;;;;;4968837;28;20080;-72
2021/12/03 06:01:17;;;;;;;;;;;2.80;99.90;;;;;;4968555;28;20118;-78
2021/12/03 06:03:46;;;;;;;;;;;2.80;99.90;;;;;;4954598;28;20075;-73
2021/12/03 06:06:15;;;;;;;;;;;2.80;99.90;;;;;;4983403;28;20178;-73
2021/12/03 06:08:44;;;;;;;;;;;2.80;99.90;;;;;;4958793;28;21079;-73
2021/12/03 06:11:11;;;;;;;;;;;2.80;99.90;;;;;;4966180;28;20100;-73
2021/12/03 06:13:40;;;;;;;;;;;2.80;99.90;;;;;;4959842;28;20224;-72
2021/12/03 06:16:07;;;;;;;;;;;2.80;99.90;;;;;;4972452;28;20068;-73
2021/12/03 06:18:34;;;;;;;;;;;2.80;99.90;;;;;;4984786;28;20171;-73
2021/12/03 06:21:02;;;;;;;;;;;2.80;99.90;;;;;;4987665;28;20130;-73
2021/12/03 06:23:30;;;;;;;;;;;2.80;99.90;;;;;;4981928;28;20075;-73
2021/12/03 06:26:00;;;;;;;;;;;2.80;99.90;;;;;;4965248;28;20097;-72
2021/12/03 06:28:27;;;;;;;;;;;2.80;99.90;;;;;;4960180;28;20069;-73
2021/12/03 06:30:55;;;;;;;;;;;2.90;99.90;;;;;;4964914;28;20060;-73
2021/12/03 06:33:22;;;;;;;;;;;2.90;99.90;;;;;;4989787;28;20239;-73
2021/12/03 06:35:50;;;;;;;;;;;2.80;99.90;;;;;;4971980;28;20149;-72
2021/12/03 06:38:17;;;;;;;;;;;2.80;99.90;;;;;;4975400;28;21185;-72
2021/12/03 06:40:46;;;;;;;;;;;2.80;99.90;;;;;;4962231;28;20150;-73
2021/12/03 06:43:14;;;;;;;;;;;2.80;99.90;;;;;;4971826;28;20158;-73
2021/12/03 06:45:41;;;;;;;;;;;2.70;99.90;;;;;;4970625;28;20089;-72
2021/12/03 06:48:08;;;;;;;;;;;2.70;99.90;;;;;;4979766;28;20061;-73
2021/12/03 06:50:36;;;;;;;;;;;2.70;99.90;;;;;;4982675;28;21153;-72
2021/12/03 06:53:06;;;;;;;;;;;2.60;99.90;;;;;;4968707;28;20076;-73
2021/12/03 06:55:38;;;;;;;;;;;2.60;99.90;;;;;;4968052;28;20061;-73
2021/12/03 06:58:07;;;;;;;;;;;2.50;99.90;;;;;;4965456;28;20175;-73
2021/12/03 07:00:34;;;;;;;;;;;2.50;99.90;;;;;;4965668;28;20069;-73
2021/12/03 07:03:01;;;;;;;;;;;2.50;99.90;;;;;;4973415;28;20069;-73
2021/12/03 07:05:28;;;;;;;;;;;2.50;99.90;;;;;;4970894;28;20060;-72
2021/12/03 07:07:55;;;;;;;;;;;2.50;99.90;;;;;;4967282;28;20158;-73
2021/12/03 07:10:23;;;;;;;;;;;2.40;99.90;;;;;;4960781;28;20085;-73
2021/12/03 07:12:50;;;;;;;;;;;2.40;99.90;;;;;;4965759;28;20281;-73
2021/12/03 07:15:18;;;;;;;;;;;2.40;99.90;;;;;;4967871;28;20069;-72
2021/12/03 07:17:49;;;;;;;;;;;2.40;99.90;;;;;;4962019;28;20085;-73
2021/12/03 07:20:16;;;;;;;;;;;2.30;99.90;;;;;;4961436;28;20060;-74
2021/12/03 07:22:43;;;;;;;;;;;2.40;99.90;;;;;;4967074;28;20060;-72
2021/12/03 07:25:11;;;;;;;;;;;2.40;99.90;;;;;;4967612;28;20106;-73
2021/12/03 07:27:39;;;;;;;;;;;2.40;99.90;;;;;;4972069;28;20178;-72
2021/12/03 07:30:06;;;;;;;;;;;2.40;99.90;;;;;;4950313;28;20069;-73
2021/12/03 07:32:35;;;;;;;;;;;2.40;99.90;;;;;;4953215;28;20078;-73
2021/12/03 07:35:03;;;;;;;;;;;2.40;99.90;;;;;;4961435;28;20171;-73
2021/12/03 07:37:31;;;;;;;;;;;2.40;99.90;;;;;;4970932;28;20081;-72
2021/12/03 07:39:59;;;;;;;;;;;2.40;99.90;;;;;;4972745;28;20084;-73
2021/12/03 07:42:26;;;;;;;;;;;2.40;99.90;;;;;;4979875;28;20067;-73
2021/12/03 07:44:53;;;;;;;;;;;2.40;99.90;;;;;;4971266;28;20150;-73
2021/12/03 07:47:20;;;;;;;;;;;2.40;99.90;;;;;;4969986;28;20143;-72
2021/12/03 07:52:18;;;;;;;;;;;2.40;99.90;;;;;;4938218;28;20093;-74
2021/12/03 07:54:45;;;;;;;;;;;2.40;99.90;;;;;;4945179;28;20069;-73
2021/12/03 07:57:12;;;;;;;;;;;2.40;99.90;;;;;;4943237;28;20062;-76
2021/12/03 07:59:40;;;;;;;;;;;2.50;99.90;;;;;;4944140;28;20061;-73
2021/12/03 08:02:07;;;;;;;;;;;2.50;99.90;;;;;;4945029;28;20159;-74
2021/12/03 08:04:34;;;;;;;;;;;2.50;99.90;;;;;;4944628;28;20160;-74
2021/12/03 08:07:02;;;;;;;;;;;2.40;99.90;;;;;;4944741;28;20077;-74
2021/12/03 08:09:31;;;;;;;;;;;2.40;99.90;;;;;;4941224;28;20155;-75
2021/12/03 08:11:59;;;;;;;;;;;2.50;99.90;;;;;;4949482;28;20053;-73
2021/12/03 08:14:27;;;;;;;;;;;2.50;99.90;;;;;;4935420;28;20070;-72
2021/12/03 08:16:54;;;;;;;;;;;2.50;99.90;;;;;;4943824;28;20062;-75
2021/12/03 08:19:22;;;;;;;;;;;2.50;99.90;;;;;;4940764;28;20077;-75
2021/12/03 08:21:49;;;;;;;;;;;2.60;99.90;;;;;;4958513;28;21137;-75
2021/12/03 08:24:16;;;;;;;;;;;2.60;99.90;;;;;;4943635;28;20151;-75
2021/12/03 08:26:44;;;;;;;;;;;2.70;99.90;;;;;;4944311;28;20171;-75
2021/12/03 08:29:12;;;;;;;;;;;2.70;99.90;;;;;;4943621;28;20081;-73
2021/12/03 08:31:39;;;;;;;;;;;2.70;99.90;;;;;;4944679;28;20077;-74
2021/12/03 08:34:07;;;;;;;;;;;2.70;99.90;;;;;;4944445;28;20077;-73
2021/12/03 08:36:34;;;;;;;;;;;2.80;99.90;;;;;;4941655;28;21201;-73
2021/12/03 08:39:01;;;;;;;;;;;2.80;99.90;;;;;;4941651;28;20075;-73
2021/12/03 08:41:28;;;;;;;;;;;2.80;99.90;;;;;;4944456;28;21108;-73
2021/12/03 08:43:57;;;;;;;;;;;2.80;99.90;;;;;;4946834;28;20076;-73
2021/12/03 08:46:27;;;;;;;;;;;2.80;99.90;;;;;;4941014;28;20084;-73
2021/12/03 08:49:04;;;;;;;;;;;2.80;99.90;;;;;;4942310;28;20134;-73
2021/12/03 08:51:36;;;;;;;;;;;2.90;99.90;;;;;;4956697;28;20245;-74
2021/12/03 08:56:48;;;;;;;;;;;3.00;99.90;;;;;;4975001;28;20058;-73
2021/12/03 08:59:18;;;;;;;;;;;3.00;99.90;;;;;;4958898;28;20076;-74
2021/12/03 09:01:45;;;;;;;;;;;3.00;99.90;;;;;;4960151;28;20069;-74
2021/12/03 09:04:12;;;;;;;;;;;3.00;99.90;;;;;;4978518;28;21450;-74
2021/12/03 09:06:40;;;;;;;;;;;3.10;99.90;;;;;;4962025;28;20079;-74
2021/12/03 09:09:07;;;;;;;;;;;3.10;99.90;;;;;;4963926;28;20061;-73
2021/12/03 09:11:35;;;;;;;;;;;3.10;99.90;;;;;;4968737;28;20194;-74
2021/12/03 09:14:07;;;;;;;;;;;3.10;99.90;;;;;;4962213;28;20232;-73
2021/12/03 09:16:35;;;;;;;;;;;3.10;99.90;;;;;;4962365;28;21121;-74
2021/12/03 09:19:05;;;;;;;;;;;3.10;99.90;;;;;;4964279;28;20115;-74
2021/12/03 09:21:34;;;;;;;;;;;3.20;99.90;;;;;;4977703;28;20087;-72
2021/12/03 09:24:10;;;;;;;;;;;3.20;99.90;;;;;;4960510;28;20060;-74
2021/12/03 09:26:39;;;;;;;;;;;3.20;99.90;;;;;;4959373;28;20053;-73
2021/12/03 09:29:08;;;;;;;;;;;3.20;99.90;;;;;;4959574;28;20060;-72
2021/12/03 09:31:41;;;;;;;;;;;3.20;99.90;;;;;;4972862;28;20089;-74
2021/12/03 09:34:09;;;;;;;;;;;3.30;99.90;;;;;;4958516;28;20183;-73
2021/12/03 09:36:39;;;;;;;;;;;3.30;99.90;;;;;;4962653;28;20191;-73
2021/12/03 09:39:08;;;;;;;;;;;3.30;99.90;;;;;;4961989;28;21520;-74
2021/12/03 09:41:36;;;;;;;;;;;3.30;99.90;;;;;;4956514;28;20222;-74
2021/12/03 09:44:03;;;;;;;;;;;3.40;99.90;;;;;;4961016;28;20085;-73
2021/12/03 09:46:31;;;;;;;;;;;3.40;99.90;;;;;;4962203;28;20060;-74
2021/12/03 09:51:52;;;;;;;;;;;3.50;99.90;;;;;;4958107;28;20084;-74
2021/12/03 09:54:27;;;;;;;;;;;3.50;99.90;;;;;;4956554;28;20076;-73
2021/12/03 09:56:59;;;;;;;;;;;3.50;99.90;;;;;;4962415;28;20068;-74
2021/12/03 10:02:20;;;;;;;;;;;3.60;99.90;;;;;;4967293;28;21187;-74
2021/12/03 10:05:25;;;;;;;;;;;3.60;99.90;;;;;;4967490;28;20068;-74
2021/12/03 10:13:36;;;;;;;;;;;3.80;99.90;;;;;;4967172;28;20069;-74
2021/12/03 10:16:09;;;;;;;;;;;3.90;99.90;;;;;;4965428;28;20095;-74
2021/12/03 10:18:45;;;;;;;;;;;3.90;99.90;;;;;;4966019;28;20081;-75
2021/12/03 10:21:31;;;;;;;;;;;3.90;99.90;;;;;;4968180;28;21082;-75
2021/12/03 10:24:24;;;;;;;;;;;4.00;99.90;;;;;;4959605;28;20052;-75
2021/12/03 10:29:49;;;;;;;;;;;4.10;99.90;;;;;;4957437;28;20057;-74
2021/12/03 10:35:03;;;;;;;;;;;4.20;99.90;;;;;;4978845;28;20065;-73
2021/12/03 10:40:29;;;;;;;;;;;4.20;99.90;;;;;;4950087;28;20066;-75
2021/12/03 10:43:30;;;;;;;;;;;4.20;99.90;;;;;;4966305;28;20271;-75
2021/12/03 10:46:12;;;;;;;;;;;4.10;99.90;;;;;;4965571;28;20152;-75
2021/12/03 10:48:48;;;;;;;;;;;4.20;99.90;;;;;;4965052;28;20088;-74
2021/12/03 10:51:28;;;;;;;;;;;4.20;99.90;;;;;;4965486;28;20069;-75
2021/12/03 10:54:04;;;;;;;;;;;4.50;99.90;;;;;;4962718;28;20083;-73
2021/12/03 10:56:48;;;;;;;;;;;4.70;99.90;;;;;;4965545;28;20085;-73
2021/12/03 10:59:37;;;;;;;;;;;4.90;99.90;;;;;;4964855;28;20295;-74
2021/12/03 11:05:21;;;;;;;;;;;5.70;99.90;;;;;;4947797;28;20457;-74
2021/12/03 11:08:13;;;;;;;;;;;5.80;99.90;;;;;;4965571;28;20149;-74
2021/12/03 11:11:24;;;;;;;;;;;5.70;99.90;;;;;;4965227;28;20057;-76
2021/12/03 11:31:01;;;;;;;;;;;5.00;99.90;;;;;;4918003;28;20172;-75
2021/12/03 11:34:02;;;;;;;;;;;4.90;99.90;;;;;;4971797;28;21247;-75
2021/12/03 11:36:53;;;;;;;;;;;4.90;99.90;;;;;;4959999;28;21107;-74
2021/12/03 12:34:11;;;;;;;;;;;5.30;99.90;;;;;;4954691;28;20275;-74
2021/12/03 12:39:36;;;;;;;;;;;5.30;99.90;;;;;;4924686;28;20214;-75
2021/12/03 14:39:22;;;;;;;;;;;4.70;99.90;;;;;;4961946;28;21117;-73
2021/12/03 14:44:54;;;;;;;;;;;4.70;99.90;;;;;;4959865;28;21245;-74
2021/12/03 14:53:23;;;;;;;;;;;4.70;99.90;;;;;;4960694;28;21154;-74
2021/12/03 14:55:52;;;;;;;;;;;4.70;99.90;;;;;;4961653;28;21093;-74
2021/12/03 14:58:21;;;;;;;;;;;4.70;99.90;;;;;;4956016;28;20086;-72
2021/12/03 15:00:54;;;;;;;;;;;4.70;99.90;;;;;;4961699;28;20061;-72
2021/12/03 15:03:44;;;;;;;;;;;4.70;99.90;;;;;;4966252;28;21113;-73
2021/12/03 15:06:28;;;;;;;;;;;4.70;99.90;;;;;;4965476;28;20068;-73
2021/12/03 15:08:58;;;;;;;;;;;4.60;99.90;;;;;;4981761;28;21044;-73
2021/12/03 15:25:38;;;;;;;;;;;4.40;99.90;;;;;;4965843;28;20088;-73
2021/12/03 15:31:01;;;;;;;;;;;4.40;99.90;;;;;;4962111;28;20310;-74
2021/12/03 15:33:37;;;;;;;;;;;4.30;99.90;;;;;;4965108;28;21098;-73
2021/12/03 15:36:07;;;;;;;;;;;4.40;99.90;;;;;;4965918;28;20171;-73
2021/12/03 15:55:51;;;;;;;;;;;4.40;99.90;;;;;;4965817;28;20142;-76
2021/12/03 15:58:33;;;;;;;;;;;4.40;99.90;;;;;;4962797;28;20076;-74
2021/12/03 16:03:53;;;;;;;;;;;4.40;99.90;;;;;;4964983;28;21503;-75
2021/12/03 16:06:33;;;;;;;;;;;4.30;99.90;;;;;;4961293;28;20069;-74
2021/12/03 16:09:36;;;;;;;;;;;4.40;99.90;;;;;;4961944;28;21209;-73
2021/12/03 16:12:12;;;;;;;;;;;4.40;99.90;;;;;;4962128;28;20155;-74
2021/12/03 16:14:53;;;;;;;;;;;4.40;99.90;;;;;;4964572;28;21292;-75
2021/12/03 16:20:26;;;;;;;;;;;4.50;99.90;;;;;;4962111;28;20065;-74
2021/12/03 16:23:23;;;;;;;;;;;4.50;99.90;;;;;;4964032;28;21116;-75
2021/12/03 16:26:13;;;;;;;;;;;4.50;99.90;;;;;;4974071;28;20268;-74
2021/12/03 16:51:23;;;;;;;;;;;4.60;99.90;;;;;;4958815;28;20072;-74
2021/12/03 16:53:54;;;;;;;;;;;4.60;99.90;;;;;;4961226;28;20076;-75
2021/12/03 16:56:24;;;;;;;;;;;4.60;99.90;;;;;;4959339;28;21165;-74
2021/12/03 16:58:51;;;;;;;;;;;4.60;99.90;;;;;;4975825;28;21134;-74
2021/12/03 17:01:23;;;;;;;;;;;4.60;99.90;;;;;;4963858;28;20172;-75
2021/12/03 17:03:55;;;;;;;;;;;4.60;99.90;;;;;;4964324;28;20059;-75
2021/12/03 17:09:17;;;;;;;;;;;4.60;99.90;;;;;;4962149;28;20239;-76
2021/12/03 17:12:12;;;;;;;;;;;4.60;99.90;;;;;;4962960;28;20059;-75
2021/12/03 17:29:18;;;;;;;;;;;4.60;99.90;;;;;;5057135;28;21236;-73
2021/12/03 17:48:28;;;;;;;;;;;4.60;99.90;;;;;;5060651;28;20064;-72
2021/12/03 17:51:08;;;;;;;;;;;4.60;99.90;;;;;;5060131;28;20111;-73
2021/12/03 17:56:24;;;;;;;;;;;4.70;99.90;;;;;;5035635;28;20167;-75
2021/12/03 17:58:53;;;;;;;;;;;4.70;99.90;;;;;;5068165;27;21160;-74
2021/12/03 18:01:25;;;;;;;;;;;4.70;99.90;;;;;;5057723;28;20291;-72
2021/12/03 18:04:02;;;;;;;;;;;4.70;99.90;;;;;;5065146;28;20068;-74
2021/12/03 18:06:51;;;;;;;;;;;4.70;99.90;;;;;;5076619;27;21028;-73
2021/12/03 18:12:34;;;;;;;;;;;4.70;99.90;;;;;;5024987;28;20251;-74
2021/12/03 18:45:33;;;;;;;;;;;4.90;99.90;;;;;;5056500;28;20069;-74
2021/12/03 18:51:00;;;;;;;;;;;4.90;99.90;;;;;;5040814;28;20283;-74
2021/12/03 18:53:40;;;;;;;;;;;4.90;99.90;;;;;;5044240;28;20296;-74
2021/12/03 18:56:14;;;;;;;;;;;4.90;99.90;;;;;;5053643;28;20075;-73
2021/12/03 18:58:41;;;;;;;;;;;4.90;99.90;;;;;;5053012;28;20100;-73
2021/12/03 19:01:11;;;;;;;;;;;4.90;99.90;;;;;;5050703;28;20076;-75
2021/12/03 19:03:52;;;;;;;;;;;4.90;99.90;;;;;;5047021;28;20065;-73
2021/12/03 19:06:23;;;;;;;;;;;5.00;99.90;;;;;;5051355;28;20257;-74
2021/12/03 19:08:52;;;;;;;;;;;5.00;99.90;;;;;;5084359;27;20208;-73
2021/12/03 19:11:23;;;;;;;;;;;5.00;99.90;;;;;;5051307;28;20058;-73
2021/12/03 19:13:50;;;;;;;;;;;4.90;99.90;;;;;;5055237;28;20059;-74
2021/12/03 19:16:22;;;;;;;;;;;5.00;99.90;;;;;;5044966;28;20059;-75
2021/12/03 19:18:51;;;;;;;;;;;4.90;99.90;;;;;;5048326;28;20073;-72
2021/12/03 19:21:22;;;;;;;;;;;5.00;99.90;;;;;;5049396;28;20257;-74
2021/12/03 19:23:49;;;;;;;;;;;5.00;99.90;;;;;;5046482;28;20285;-73
2021/12/03 19:26:18;;;;;;;;;;;5.00;99.90;;;;;;5046066;28;20112;-74
2021/12/03 19:28:45;;;;;;;;;;;5.00;99.90;;;;;;5041390;28;20079;-74
2021/12/03 19:31:12;;;;;;;;;;;4.90;99.90;;;;;;5048665;28;20303;-73
2021/12/03 19:33:41;;;;;;;;;;;5.00;99.90;;;;;;5052382;28;21047;-74
2021/12/03 19:36:10;;;;;;;;;;;4.90;99.90;;;;;;5052465;28;20067;-74
2021/12/03 19:38:38;;;;;;;;;;;4.90;99.90;;;;;;5048040;28;20082;-75
2021/12/03 19:41:13;;;;;;;;;;;4.90;99.90;;;;;;5042459;28;20076;-74
2021/12/03 19:43:43;;;;;;;;;;;4.90;99.90;;;;;;5055012;28;20059;-73
2021/12/03 19:46:14;;;;;;;;;;;4.90;99.90;;;;;;5053524;28;21121;-75
2021/12/03 19:48:48;;;;;;;;;;;4.80;99.90;;;;;;5041817;28;20282;-74
2021/12/03 19:51:16;;;;;;;;;;;4.90;99.90;;;;;;5053657;22;21056;-76
2021/12/03 19:53:54;;;;;;;;;;;4.80;99.90;;;;;;5000451;28;20101;-75
2021/12/03 19:56:22;;;;;;;;;;;4.80;99.90;;;;;;5003006;28;20052;-73
2021/12/03 19:58:50;;;;;;;;;;;4.90;99.90;;;;;;4989036;28;20069;-74
2021/12/03 20:01:17;;;;;;;;;;;4.80;99.90;;;;;;4980546;28;20096;-76
2021/12/03 20:03:45;;;;;;;;;;;4.80;99.90;;;;;;5003820;28;20082;-76
2021/12/03 20:06:13;;;;;;;;;;;4.80;99.90;;;;;;5006459;28;20083;-77
2021/12/03 20:08:40;;;;;;;;;;;4.80;99.90;;;;;;5017313;28;20081;-76
2021/12/03 20:11:08;;;;;;;;;;;4.80;99.90;;;;;;5007246;28;20068;-75
2021/12/03 20:13:36;;;;;;;;;;;4.80;99.90;;;;;;5018508;28;21220;-76
2021/12/03 20:16:14;;;;;;;;;;;4.80;99.90;;;;;;5020777;28;20066;-77
2021/12/03 20:18:43;;;;;;;;;;;4.80;99.90;;;;;;5003677;28;20151;-76
2021/12/03 20:21:13;;;;;;;;;;;4.70;99.90;;;;;;5002009;28;20189;-77
2021/12/03 20:23:46;;;;;;;;;;;4.70;99.90;;;;;;5021400;28;20253;-76
2021/12/03 20:26:39;;;;;;;;;;;4.70;99.90;;;;;;5031457;28;20075;-75
2021/12/03 20:29:13;;;;;;;;;;;4.70;99.90;;;;;;5020354;28;20059;-76
2021/12/03 20:31:45;;;;;;;;;;;4.70;99.90;;;;;;5035275;28;20158;-76
2021/12/03 20:34:28;;;;;;;;;;;4.70;99.90;;;;;;5034650;28;20227;-75
2021/12/03 20:36:59;;;;;;;;;;;4.70;99.90;;;;;;5002952;28;20143;-75
2021/12/03 20:39:32;;;;;;;;;;;4.70;99.90;;;;;;5017747;28;20093;-75
2021/12/03 20:42:04;;;;;;;;;;;4.70;99.90;;;;;;5031676;28;21048;-75
2021/12/03 20:44:52;;;;;;;;;;;4.70;99.90;;;;;;5001603;28;20228;-75
2021/12/03 20:50:34;;;;;;;;;;;4.70;99.90;;;;;;4982305;28;20109;-75
2021/12/03 21:09:30;;;;;;;;;;;4.80;99.90;;;;;;5002954;28;20057;-76
2021/12/03 21:12:00;;;;;;;;;;;4.70;99.90;;;;;;5030365;28;20225;-76
2021/12/03 21:14:30;;;;;;;;;;;4.70;99.90;;;;;;5025160;28;20089;-76